sensor_id;sensor_type;location;lat;lon;timestamp;pressure;altitude;pressure_sealevel;temperature;humidity
6565;BME280;3316;44.118;27.258;2023-04-04T00:01:15;100548.19;;;8.60;100.00
6565;BME280;3316;44.118;27.258;2023-04-04T00:03:41;100541.19;;;8.57;100.00
6565;BME280;3316;44.118;27.258;2023-04-04T00:06:07;100550.78;;;8.57;100.00
6565;BME280;3316;44.118;27.258;2023-04-04T00:08:33;100550.81;;;8.54;100.00
6565;BME280;3316;44.118;27.258;2023-04-04T00:10:59;100545.59;;;8.52;100.00
6565;BME280;3316;44.118;27.258;2023-04-04T00:13:25;100542.06;;;8.53;100.00
6565;BME280;3316;44.118;27.258;2023-04-04T00:15:52;100546.47;;;8.47;100.00
6565;BME280;3316;44.118;27.258;2023-04-04T00:18:17;100526.41;;;8.35;100.00
6565;BME280;3316;44.118;27.258;2023-04-04T00:20:43;100541.25;;;8.42;100.00
6565;BME280;3316;44.118;27.258;2023-04-04T00:23:08;100513.31;;;8.28;100.00
6565;BME280;3316;44.118;27.258;2023-04-04T00:25:37;100537.75;;;8.31;100.00
6565;BME280;3316;44.118;27.258;2023-04-04T00:28:02;100546.47;;;8.41;100.00
6565;BME280;3316;44.118;27.258;2023-04-04T00:30:28;100537.81;;;8.27;100.00
6565;BME280;3316;44.118;27.258;2023-04-04T00:32:54;100543.00;;;8.22;100.00
6565;BME280;3316;44.118;27.258;2023-04-04T00:35:20;100534.28;;;8.09;100.00
6565;BME280;3316;44.118;27.258;2023-04-04T00:37:46;100530.78;;;8.13;100.00
6565;BME280;3316;44.118;27.258;2023-04-04T00:40:11;100522.97;;;7.98;100.00
6565;BME280;3316;44.118;27.258;2023-04-04T00:42:37;100519.44;;;8.08;100.00
6565;BME280;3316;44.118;27.258;2023-04-04T00:45:06;100491.50;;;8.00;100.00
6565;BME280;3316;44.118;27.258;2023-04-04T00:47:33;100496.78;;;7.97;100.00
6565;BME280;3316;44.118;27.258;2023-04-04T00:49:59;100494.16;;;7.91;100.00
6565;BME280;3316;44.118;27.258;2023-04-04T00:52:25;100502.88;;;8.00;100.00
6565;BME280;3316;44.118;27.258;2023-04-04T00:54:51;100497.66;;;8.03;100.00
6565;BME280;3316;44.118;27.258;2023-04-04T00:57:17;100493.25;;;8.07;100.00
6565;BME280;3316;44.118;27.258;2023-04-04T00:59:43;100470.56;;;7.97;100.00
6565;BME280;3316;44.118;27.258;2023-04-04T01:02:09;100484.56;;;7.97;100.00
6565;BME280;3316;44.118;27.258;2023-04-04T01:04:35;100485.41;;;7.92;100.00
6565;BME280;3316;44.118;27.258;2023-04-04T01:07:01;100474.09;;;7.84;100.00
6565;BME280;3316;44.118;27.258;2023-04-04T01:09:27;100474.09;;;7.91;100.00
6565;BME280;3316;44.118;27.258;2023-04-04T01:11:54;100454.91;;;7.76;100.00
6565;BME280;3316;44.118;27.258;2023-04-04T01:14:20;100472.38;;;7.69;100.00
6565;BME280;3316;44.118;27.258;2023-04-04T01:16:47;100468.00;;;7.71;100.00
6565;BME280;3316;44.118;27.258;2023-04-04T01:19:30;100460.13;;;7.74;100.00
6565;BME280;3316;44.118;27.258;2023-04-04T01:21:58;100451.41;;;7.69;100.00
6565;BME280;3316;44.118;27.258;2023-04-04T01:24:24;100438.34;;;7.60;100.00
6565;BME280;3316;44.118;27.258;2023-04-04T01:26:52;100445.34;;;7.64;100.00
6565;BME280;3316;44.118;27.258;2023-04-04T01:29:18;100445.31;;;7.63;100.00
6565;BME280;3316;44.118;27.258;2023-04-04T01:31:52;100456.69;;;7.66;100.00
6565;BME280;3316;44.118;27.258;2023-04-04T01:37:06;100440.09;;;7.64;100.00
6565;BME280;3316;44.118;27.258;2023-04-04T01:39:44;100457.53;;;7.70;100.00
6565;BME280;3316;44.118;27.258;2023-04-04T01:42:14;100468.00;;;7.59;100.00
6565;BME280;3316;44.118;27.258;2023-04-04T01:44:39;100449.69;;;7.52;100.00
6565;BME280;3316;44.118;27.258;2023-04-04T01:47:05;100438.34;;;7.51;100.00
6565;BME280;3316;44.118;27.258;2023-04-04T01:49:34;100437.47;;;7.52;100.00
6565;BME280;3316;44.118;27.258;2023-04-04T01:51:59;100433.13;;;7.48;100.00
6565;BME280;3316;44.118;27.258;2023-04-04T01:54:25;100423.53;;;7.44;100.00
6565;BME280;3316;44.118;27.258;2023-04-04T01:56:52;100411.31;;;7.34;100.00
6565;BME280;3316;44.118;27.258;2023-04-04T01:59:18;100393.03;;;7.31;100.00
6565;BME280;3316;44.118;27.258;2023-04-04T02:01:43;100392.16;;;7.35;100.00
6565;BME280;3316;44.118;27.258;2023-04-04T02:04:09;100406.97;;;7.36;100.00
6565;BME280;3316;44.118;27.258;2023-04-04T02:06:37;100395.63;;;7.30;100.00
6565;BME280;3316;44.118;27.258;2023-04-04T02:09:02;100400.84;;;7.39;100.00
6565;BME280;3316;44.118;27.258;2023-04-04T02:11:28;100412.19;;;7.35;100.00
6565;BME280;3316;44.118;27.258;2023-04-04T02:13:53;100408.72;;;7.37;100.00
6565;BME280;3316;44.118;27.258;2023-04-04T02:16:19;100425.28;;;7.42;100.00
6565;BME280;3316;44.118;27.258;2023-04-04T02:18:45;100422.66;;;7.30;100.00
6565;BME280;3316;44.118;27.258;2023-04-04T02:21:11;100399.97;;;7.32;100.00
6565;BME280;3316;44.118;27.258;2023-04-04T02:23:36;100394.75;;;7.35;100.00
6565;BME280;3316;44.118;27.258;2023-04-04T02:26:03;100397.38;;;7.29;100.00
6565;BME280;3316;44.118;27.258;2023-04-04T02:28:28;100412.19;;;7.36;100.00
6565;BME280;3316;44.118;27.258;2023-04-04T02:30:54;100403.47;;;7.37;100.00
6565;BME280;3316;44.118;27.258;2023-04-04T02:33:20;100386.88;;;7.34;100.00
6565;BME280;3316;44.118;27.258;2023-04-04T02:35:46;100400.00;;;7.29;100.00
6565;BME280;3316;44.118;27.258;2023-04-04T02:38:11;100386.03;;;7.21;100.00
6565;BME280;3316;44.118;27.258;2023-04-04T02:40:37;100392.13;;;7.20;100.00
6565;BME280;3316;44.118;27.258;2023-04-04T02:43:04;100391.28;;;7.13;100.00
6565;BME280;3316;44.118;27.258;2023-04-04T02:45:29;100378.19;;;7.09;100.00
6565;BME280;3316;44.118;27.258;2023-04-04T02:47:55;100400.00;;;7.25;100.00
6565;BME280;3316;44.118;27.258;2023-04-04T02:50:20;100385.19;;;7.13;100.00
6565;BME280;3316;44.118;27.258;2023-04-04T02:52:45;100395.66;;;7.17;100.00
6565;BME280;3316;44.118;27.258;2023-04-04T02:55:11;100375.59;;;7.13;100.00
6565;BME280;3316;44.118;27.258;2023-04-04T02:57:36;100393.00;;;7.14;100.00
6565;BME280;3316;44.118;27.258;2023-04-04T03:00:02;100395.63;;;7.07;100.00
6565;BME280;3316;44.118;27.258;2023-04-04T03:02:28;100389.53;;;7.05;100.00
6565;BME280;3316;44.118;27.258;2023-04-04T03:04:54;100403.50;;;7.13;100.00
6565;BME280;3316;44.118;27.258;2023-04-04T03:07:19;100399.16;;;7.06;100.00
6565;BME280;3316;44.118;27.258;2023-04-04T03:09:47;100386.03;;;7.09;100.00
6565;BME280;3316;44.118;27.258;2023-04-04T03:12:12;100393.00;;;7.02;100.00
6565;BME280;3316;44.118;27.258;2023-04-04T03:14:38;100388.66;;;7.04;100.00
6565;BME280;3316;44.118;27.258;2023-04-04T03:17:03;100398.25;;;7.10;100.00
6565;BME280;3316;44.118;27.258;2023-04-04T03:19:29;100401.72;;;7.10;100.00
6565;BME280;3316;44.118;27.258;2023-04-04T03:21:54;100393.03;;;7.04;100.00
6565;BME280;3316;44.118;27.258;2023-04-04T03:24:20;100403.50;;;7.04;100.00
6565;BME280;3316;44.118;27.258;2023-04-04T03:26:45;100396.50;;;7.01;100.00
6565;BME280;3316;44.118;27.258;2023-04-04T03:29:11;100391.28;;;6.94;100.00
6565;BME280;3316;44.118;27.258;2023-04-04T03:31:36;100408.69;;;6.96;100.00
6565;BME280;3316;44.118;27.258;2023-04-04T03:34:02;100401.72;;;6.89;100.00
6565;BME280;3316;44.118;27.258;2023-04-04T03:36:29;100393.00;;;6.83;100.00
6565;BME280;3316;44.118;27.258;2023-04-04T03:38:55;100418.28;;;6.78;100.00
6565;BME280;3316;44.118;27.258;2023-04-04T03:41:20;100411.31;;;6.78;100.00
6565;BME280;3316;44.118;27.258;2023-04-04T03:43:46;100425.25;;;6.82;100.00
6565;BME280;3316;44.118;27.258;2023-04-04T03:46:12;100420.03;;;6.77;100.00
6565;BME280;3316;44.118;27.258;2023-04-04T03:48:38;100415.66;;;6.72;100.00
6565;BME280;3316;44.118;27.258;2023-04-04T03:51:04;100432.22;;;6.77;100.00
6565;BME280;3316;44.118;27.258;2023-04-04T03:53:29;100438.34;;;6.73;100.00
6565;BME280;3316;44.118;27.258;2023-04-04T03:55:55;100425.25;;;6.74;100.00
6565;BME280;3316;44.118;27.258;2023-04-04T03:58:21;100441.81;;;6.75;100.00
6565;BME280;3316;44.118;27.258;2023-04-04T04:00:47;100432.19;;;6.68;100.00
6565;BME280;3316;44.118;27.258;2023-04-04T04:03:13;100444.38;;;6.57;100.00
6565;BME280;3316;44.118;27.258;2023-04-04T04:05:38;100421.72;;;6.45;100.00
6565;BME280;3316;44.118;27.258;2023-04-04T04:08:04;100426.06;;;6.52;100.00
6565;BME280;3316;44.118;27.258;2023-04-04T04:10:29;100417.34;;;6.41;100.00
6565;BME280;3316;44.118;27.258;2023-04-04T04:12:55;100424.28;;;6.41;100.00
6565;BME280;3316;44.118;27.258;2023-04-04T04:15:21;100418.19;;;6.40;100.00
6565;BME280;3316;44.118;27.258;2023-04-04T04:17:46;100414.72;;;6.43;100.00
6565;BME280;3316;44.118;27.258;2023-04-04T04:20:12;100411.19;;;6.27;100.00
6565;BME280;3316;44.118;27.258;2023-04-04T04:22:37;100414.69;;;6.34;100.00
6565;BME280;3316;44.118;27.258;2023-04-04T04:25:03;100385.06;;;6.27;100.00
6565;BME280;3316;44.118;27.258;2023-04-04T04:27:29;100398.13;;;6.28;100.00
6565;BME280;3316;44.118;27.258;2023-04-04T04:29:55;100403.34;;;6.25;100.00
6565;BME280;3316;44.118;27.258;2023-04-04T04:32:21;100400.78;;;6.38;100.00
6565;BME280;3316;44.118;27.258;2023-04-04T04:34:46;100407.75;;;6.39;100.00
6565;BME280;3316;44.118;27.258;2023-04-04T04:37:12;100397.25;;;6.28;100.00
6565;BME280;3316;44.118;27.258;2023-04-04T04:39:37;100404.19;;;6.24;100.00
6565;BME280;3316;44.118;27.258;2023-04-04T04:42:03;100405.94;;;6.19;100.00
6565;BME280;3316;44.118;27.258;2023-04-04T04:44:28;100399.81;;;6.14;100.00
6565;BME280;3316;44.118;27.258;2023-04-04T04:46:54;100408.53;;;6.22;100.00
6565;BME280;3316;44.118;27.258;2023-04-04T04:49:20;100410.31;;;6.23;100.00
6565;BME280;3316;44.118;27.258;2023-04-04T04:51:45;100398.94;;;6.17;100.00
6565;BME280;3316;44.118;27.258;2023-04-04T04:54:11;100436.41;;;6.17;100.00
6565;BME280;3316;44.118;27.258;2023-04-04T04:56:36;100453.84;;;6.23;100.00
6565;BME280;3316;44.118;27.258;2023-04-04T04:59:02;100476.50;;;6.28;100.00
6565;BME280;3316;44.118;27.258;2023-04-04T05:01:28;100494.78;;;6.25;100.00
6565;BME280;3316;44.118;27.258;2023-04-04T05:03:53;100501.81;;;6.36;100.00
6565;BME280;3316;44.118;27.258;2023-04-04T05:06:19;100519.25;;;6.41;100.00
6565;BME280;3316;44.118;27.258;2023-04-04T05:08:44;100507.00;;;6.29;100.00
6565;BME280;3316;44.118;27.258;2023-04-04T05:11:10;100512.25;;;6.40;100.00
6565;BME280;3316;44.118;27.258;2023-04-04T05:13:35;100502.66;;;6.32;100.00
6565;BME280;3316;44.118;27.258;2023-04-04T05:16:01;100483.47;;;6.26;100.00
6565;BME280;3316;44.118;27.258;2023-04-04T05:18:27;100487.78;;;6.14;100.00
6565;BME280;3316;44.118;27.258;2023-04-04T05:20:53;100490.34;;;6.12;100.00
6565;BME280;3316;44.118;27.258;2023-04-04T05:23:19;100483.34;;;6.04;100.00
6565;BME280;3316;44.118;27.258;2023-04-04T05:25:47;100452.78;;;5.85;100.00
6565;BME280;3316;44.118;27.258;2023-04-04T05:28:13;100436.16;;;5.75;100.00
6565;BME280;3316;44.118;27.258;2023-04-04T05:30:38;100442.25;;;5.76;100.00
6565;BME280;3316;44.118;27.258;2023-04-04T05:33:05;100444.88;;;5.79;100.00
6565;BME280;3316;44.118;27.258;2023-04-04T05:35:31;100429.16;;;5.70;100.00
6565;BME280;3316;44.118;27.258;2023-04-04T05:37:56;100403.00;;;5.58;100.00
6565;BME280;3316;44.118;27.258;2023-04-04T05:40:22;100404.72;;;5.60;100.00
6565;BME280;3316;44.118;27.258;2023-04-04T05:45:19;100378.56;;;5.48;100.00
6565;BME280;3316;44.118;27.258;2023-04-04T05:47:45;100378.56;;;5.45;100.00
6565;BME280;3316;44.118;27.258;2023-04-04T05:50:10;100374.22;;;5.44;100.00
6565;BME280;3316;44.118;27.258;2023-04-04T05:52:36;100314.91;;;5.17;100.00
6565;BME280;3316;44.118;27.258;2023-04-04T05:55:01;100311.47;;;5.23;100.00
6565;BME280;3316;44.118;27.258;2023-04-04T05:57:26;100361.19;;;5.46;100.00
6565;BME280;3316;44.118;27.258;2023-04-04T05:59:52;100349.03;;;5.55;100.00
6565;BME280;3316;44.118;27.258;2023-04-04T06:02:18;100337.66;;;5.41;100.00
6565;BME280;3316;44.118;27.258;2023-04-04T06:04:44;100306.25;;;5.23;100.00
6565;BME280;3316;44.118;27.258;2023-04-04T06:07:09;100308.88;;;5.27;100.00
6565;BME280;3316;44.118;27.258;2023-04-04T06:09:35;100307.22;;;5.40;100.00
6565;BME280;3316;44.118;27.258;2023-04-04T06:12:01;100303.78;;;5.50;100.00
6565;BME280;3316;44.118;27.258;2023-04-04T06:14:29;100300.22;;;5.33;100.00
6565;BME280;3316;44.118;27.258;2023-04-04T06:16:55;100281.91;;;5.25;100.00
6565;BME280;3316;44.118;27.258;2023-04-04T06:19:21;100275.94;;;5.40;100.00
6565;BME280;3316;44.118;27.258;2023-04-04T06:21:46;100265.38;;;5.22;100.00
6565;BME280;3316;44.118;27.258;2023-04-04T06:24:11;100273.22;;;5.23;100.00
6565;BME280;3316;44.118;27.258;2023-04-04T06:26:37;100227.09;;;5.12;100.00
6565;BME280;3316;44.118;27.258;2023-04-04T06:29:03;100251.47;;;5.23;100.00
6565;BME280;3316;44.118;27.258;2023-04-04T06:31:29;100252.34;;;5.20;100.00
6565;BME280;3316;44.118;27.258;2023-04-04T06:33:55;100241.06;;;5.24;100.00
6565;BME280;3316;44.118;27.258;2023-04-04T06:36:21;100248.91;;;5.24;100.00
6565;BME280;3316;44.118;27.258;2023-04-04T06:38:46;100248.00;;;5.25;100.00
6565;BME280;3316;44.118;27.258;2023-04-04T06:41:12;100221.91;;;5.15;100.00
6565;BME280;3316;44.118;27.258;2023-04-04T06:43:37;100231.50;;;5.22;100.00
6565;BME280;3316;44.118;27.258;2023-04-04T06:46:03;100231.50;;;5.20;100.00
6565;BME280;3316;44.118;27.258;2023-04-04T06:48:28;100230.59;;;5.21;100.00
6565;BME280;3316;44.118;27.258;2023-04-04T06:50:54;100248.00;;;5.27;100.00
6565;BME280;3316;44.118;27.258;2023-04-04T06:53:19;100239.31;;;5.22;100.00
6565;BME280;3316;44.118;27.258;2023-04-04T06:55:45;100239.28;;;5.17;100.00
6565;BME280;3316;44.118;27.258;2023-04-04T06:58:10;100264.47;;;5.14;100.00
6565;BME280;3316;44.118;27.258;2023-04-04T07:00:36;100259.22;;;5.08;100.00
6565;BME280;3316;44.118;27.258;2023-04-04T07:03:01;100260.91;;;5.00;100.00
6565;BME280;3316;44.118;27.258;2023-04-04T07:05:27;100242.53;;;4.80;100.00
6565;BME280;3316;44.118;27.258;2023-04-04T07:07:54;100288.69;;;4.96;100.00
6565;BME280;3316;44.118;27.258;2023-04-04T07:10:21;100298.28;;;5.00;100.00
6565;BME280;3316;44.118;27.258;2023-04-04T07:12:46;100313.09;;;5.06;100.00
6565;BME280;3316;44.118;27.258;2023-04-04T07:15:12;100304.34;;;4.99;100.00
6565;BME280;3316;44.118;27.258;2023-04-04T07:17:38;100325.28;;;5.07;100.00
6565;BME280;3316;44.118;27.258;2023-04-04T07:20:06;100326.97;;;5.02;100.00
6565;BME280;3316;44.118;27.258;2023-04-04T07:22:32;100330.41;;;4.98;100.00
6565;BME280;3316;44.118;27.258;2023-04-04T07:24:57;100339.22;;;5.10;100.00
6565;BME280;3316;44.118;27.258;2023-04-04T07:27:23;100364.50;;;5.22;100.00
6565;BME280;3316;44.118;27.258;2023-04-04T07:29:48;100386.97;;;5.05;100.00
6565;BME280;3316;44.118;27.258;2023-04-04T07:32:14;100396.47;;;4.98;100.00
6565;BME280;3316;44.118;27.258;2023-04-04T07:34:39;100383.38;;;4.92;100.00
6565;BME280;3316;44.118;27.258;2023-04-04T07:37:05;100381.63;;;4.90;100.00
6565;BME280;3316;44.118;27.258;2023-04-04T07:39:31;100363.25;;;4.76;100.00
6565;BME280;3316;44.118;27.258;2023-04-04T07:41:56;100336.25;;;4.67;100.00
6565;BME280;3316;44.118;27.258;2023-04-04T07:44:22;100371.19;;;4.87;100.00
6565;BME280;3316;44.118;27.258;2023-04-04T07:46:47;100361.56;;;4.80;100.00
6565;BME280;3316;44.118;27.258;2023-04-04T07:49:13;100330.16;;;4.65;100.00
6565;BME280;3316;44.118;27.258;2023-04-04T07:51:39;100367.63;;;4.79;100.00
6565;BME280;3316;44.118;27.258;2023-04-04T07:54:04;100354.53;;;4.70;100.00
6565;BME280;3316;44.118;27.258;2023-04-04T07:56:30;100360.75;;;4.85;100.00
6565;BME280;3316;44.118;27.258;2023-04-04T07:58:55;100348.44;;;4.72;100.00
6565;BME280;3316;44.118;27.258;2023-04-04T08:01:21;100349.31;;;4.70;100.00
6565;BME280;3316;44.118;27.258;2023-04-04T08:03:46;100347.56;;;4.69;100.00
6565;BME280;3316;44.118;27.258;2023-04-04T08:06:14;100359.75;;;4.71;100.00
6565;BME280;3316;44.118;27.258;2023-04-04T08:08:39;100323.97;;;4.53;100.00
6565;BME280;3316;44.118;27.258;2023-04-04T08:11:05;100303.84;;;4.36;100.00
6565;BME280;3316;44.118;27.258;2023-04-04T08:13:30;100334.47;;;4.63;100.00
6565;BME280;3316;44.118;27.258;2023-04-04T08:15:56;100324.88;;;4.59;100.00
6565;BME280;3316;44.118;27.258;2023-04-04T08:18:21;100306.56;;;4.49;100.00
6565;BME280;3316;44.118;27.258;2023-04-04T08:20:47;100317.06;;;4.57;100.00
6565;BME280;3316;44.118;27.258;2023-04-04T08:23:12;100294.50;;;4.58;100.00
6565;BME280;3316;44.118;27.258;2023-04-04T08:25:38;100303.16;;;4.55;100.00
6565;BME280;3316;44.118;27.258;2023-04-04T08:28:03;100317.09;;;4.60;100.00
6565;BME280;3316;44.118;27.258;2023-04-04T08:30:30;100323.16;;;4.59;100.00
6565;BME280;3316;44.118;27.258;2023-04-04T08:32:56;100305.06;;;4.77;100.00
6565;BME280;3316;44.118;27.258;2023-04-04T08:35:21;100297.22;;;4.71;100.00
6565;BME280;3316;44.118;27.258;2023-04-04T08:37:47;100309.34;;;4.71;100.00
6565;BME280;3316;44.118;27.258;2023-04-04T08:40:13;100303.31;;;4.72;100.00
6565;BME280;3316;44.118;27.258;2023-04-04T08:42:40;100296.31;;;4.72;100.00
6565;BME280;3316;44.118;27.258;2023-04-04T08:45:07;100298.03;;;4.69;100.00
6565;BME280;3316;44.118;27.258;2023-04-04T08:47:34;100300.59;;;4.61;100.00
6565;BME280;3316;44.118;27.258;2023-04-04T08:50:05;100292.81;;;4.66;100.00
6565;BME280;3316;44.118;27.258;2023-04-04T08:52:32;100288.59;;;4.81;100.00
6565;BME280;3316;44.118;27.258;2023-04-04T08:54:58;100278.03;;;4.65;100.00
6565;BME280;3316;44.118;27.258;2023-04-04T08:57:24;100278.09;;;4.71;100.00
6565;BME280;3316;44.118;27.258;2023-04-04T08:59:50;100268.53;;;4.74;100.00
6565;BME280;3316;44.118;27.258;2023-04-04T09:02:25;100273.69;;;4.65;100.00
6565;BME280;3316;44.118;27.258;2023-04-04T09:04:52;100273.81;;;4.80;100.00
6565;BME280;3316;44.118;27.258;2023-04-04T09:07:19;100260.81;;;4.86;100.00
6565;BME280;3316;44.118;27.258;2023-04-04T09:09:45;100253.94;;;4.96;100.00
6565;BME280;3316;44.118;27.258;2023-04-04T09:12:16;100247.75;;;4.76;100.00
6565;BME280;3316;44.118;27.258;2023-04-04T09:14:46;100250.38;;;4.83;100.00
6565;BME280;3316;44.118;27.258;2023-04-04T09:17:14;100234.66;;;4.71;100.00
6565;BME280;3316;44.118;27.258;2023-04-04T09:19:39;100237.28;;;4.74;100.00
6565;BME280;3316;44.118;27.258;2023-04-04T09:22:06;100224.28;;;4.77;100.00
6565;BME280;3316;44.118;27.258;2023-04-04T09:24:40;100222.56;;;4.82;100.00
6565;BME280;3316;44.118;27.258;2023-04-04T09:27:12;100222.59;;;4.87;100.00
6565;BME280;3316;44.118;27.258;2023-04-04T09:29:43;100230.38;;;4.84;100.00
6565;BME280;3316;44.118;27.258;2023-04-04T09:32:11;100236.53;;;4.90;100.00
6565;BME280;3316;44.118;27.258;2023-04-04T09:34:38;100231.25;;;4.80;100.00
6565;BME280;3316;44.118;27.258;2023-04-04T09:37:05;100233.06;;;4.96;100.00
6565;BME280;3316;44.118;27.258;2023-04-04T09:39:32;100238.19;;;4.84;100.00
6565;BME280;3316;44.118;27.258;2023-04-04T09:41:59;100221.72;;;4.82;100.00
6565;BME280;3316;44.118;27.258;2023-04-04T09:44:25;100239.22;;;5.04;100.00
6565;BME280;3316;44.118;27.258;2023-04-04T09:47:05;100231.34;;;4.93;100.00
6565;BME280;3316;44.118;27.258;2023-04-04T09:49:31;100227.81;;;4.88;100.00
6565;BME280;3316;44.118;27.258;2023-04-04T09:51:56;100236.56;;;4.95;100.00
6565;BME280;3316;44.118;27.258;2023-04-04T09:54:22;100235.69;;;4.91;100.00
6565;BME280;3316;44.118;27.258;2023-04-04T09:56:48;100241.78;;;4.99;100.00
6565;BME280;3316;44.118;27.258;2023-04-04T09:59:15;100251.34;;;5.00;100.00
6565;BME280;3316;44.118;27.258;2023-04-04T10:01:42;100260.06;;;5.04;100.00
6565;BME280;3316;44.118;27.258;2023-04-04T10:04:09;100239.16;;;4.95;100.00
6565;BME280;3316;44.118;27.258;2023-04-04T10:06:36;100262.66;;;5.01;100.00
6565;BME280;3316;44.118;27.258;2023-04-04T10:09:01;100255.78;;;5.12;100.00
6565;BME280;3316;44.118;27.258;2023-04-04T10:11:32;100270.56;;;5.16;100.00
6565;BME280;3316;44.118;27.258;2023-04-04T10:13:58;100260.94;;;5.06;100.00
6565;BME280;3316;44.118;27.258;2023-04-04T10:16:25;100264.44;;;5.08;100.00
6565;BME280;3316;44.118;27.258;2023-04-04T10:18:51;100246.16;;;5.02;100.00
6565;BME280;3316;44.118;27.258;2023-04-04T10:21:17;100258.34;;;5.07;100.00
6565;BME280;3316;44.118;27.258;2023-04-04T10:23:45;100250.47;;;5.01;100.00
6565;BME280;3316;44.118;27.258;2023-04-04T10:26:11;100272.38;;;5.26;100.00
6565;BME280;3316;44.118;27.258;2023-04-04T10:28:37;100249.72;;;5.14;100.00
6565;BME280;3316;44.118;27.258;2023-04-04T10:31:24;100253.19;;;5.16;100.00
6565;BME280;3316;44.118;27.258;2023-04-04T10:36:28;100241.81;;;5.04;100.00
6565;BME280;3316;44.118;27.258;2023-04-04T10:39:01;100242.72;;;5.10;100.00
6565;BME280;3316;44.118;27.258;2023-04-04T10:41:30;100238.41;;;5.15;100.00
6565;BME280;3316;44.118;27.258;2023-04-04T10:43:59;100234.94;;;5.15;100.00
6565;BME280;3316;44.118;27.258;2023-04-04T10:46:28;100221.00;;;5.10;100.00
6565;BME280;3316;44.118;27.258;2023-04-04T10:48:57;100221.00;;;5.10;100.00
6565;BME280;3316;44.118;27.258;2023-04-04T10:51:25;100223.63;;;5.19;100.00
6565;BME280;3316;44.118;27.258;2023-04-04T10:53:51;100226.34;;;5.35;100.00
6565;BME280;3316;44.118;27.258;2023-04-04T10:56:19;100221.13;;;5.43;100.00
6565;BME280;3316;44.118;27.258;2023-04-04T10:58:45;100219.34;;;5.30;100.00
6565;BME280;3316;44.118;27.258;2023-04-04T11:01:13;100231.59;;;5.49;100.00
6565;BME280;3316;44.118;27.258;2023-04-04T11:04:16;100240.31;;;5.53;100.00
6565;BME280;3316;44.118;27.258;2023-04-04T11:07:08;100233.31;;;5.47;100.00
6565;BME280;3316;44.118;27.258;2023-04-04T11:12:15;100224.63;;;5.43;100.00
6565;BME280;3316;44.118;27.258;2023-04-04T11:14:55;100232.47;;;5.54;100.00
6565;BME280;3316;44.118;27.258;2023-04-04T11:20:10;100214.22;;;5.59;100.00
6565;BME280;3316;44.118;27.258;2023-04-04T11:22:39;100206.41;;;5.57;100.00
6565;BME280;3316;44.118;27.258;2023-04-04T11:25:39;100217.75;;;5.65;100.00
6565;BME280;3316;44.118;27.258;2023-04-04T11:28:08;100215.09;;;5.62;100.00
6565;BME280;3316;44.118;27.258;2023-04-04T11:30:38;100209.00;;;5.59;100.00
6565;BME280;3316;44.118;27.258;2023-04-04T11:33:10;100207.25;;;5.55;100.00
6565;BME280;3316;44.118;27.258;2023-04-04T11:35:39;100203.78;;;5.60;100.00
6565;BME280;3316;44.118;27.258;2023-04-04T11:38:14;100199.41;;;5.50;100.00
6565;BME280;3316;44.118;27.258;2023-04-04T11:40:41;100213.31;;;5.52;100.00
6565;BME280;3316;44.118;27.258;2023-04-04T11:43:10;100205.56;;;5.61;100.00
6565;BME280;3316;44.118;27.258;2023-04-04T11:45:37;100210.72;;;5.52;100.00
6565;BME280;3316;44.118;27.258;2023-04-04T11:48:07;100208.09;;;5.52;100.00
6565;BME280;3316;44.118;27.258;2023-04-04T11:50:35;100195.06;;;5.49;100.00
6565;BME280;3316;44.118;27.258;2023-04-04T11:53:04;100205.53;;;5.54;100.00
6565;BME280;3316;44.118;27.258;2023-04-04T11:55:30;100204.66;;;5.53;100.00
6565;BME280;3316;44.118;27.258;2023-04-04T11:58:04;100202.06;;;5.59;100.00
6565;BME280;3316;44.118;27.258;2023-04-04T12:00:31;100214.22;;;5.53;100.00
6565;BME280;3316;44.118;27.258;2023-04-04T12:02:59;100201.16;;;5.43;100.00
6565;BME280;3316;44.118;27.258;2023-04-04T12:05:25;100211.63;;;5.59;100.00
6565;BME280;3316;44.118;27.258;2023-04-04T12:07:51;100198.59;;;5.62;100.00
6565;BME280;3316;44.118;27.258;2023-04-04T12:10:17;100200.34;;;5.61;100.00
6565;BME280;3316;44.118;27.258;2023-04-04T12:12:46;100202.94;;;5.66;100.00
6565;BME280;3316;44.118;27.258;2023-04-04T12:15:15;100196.81;;;5.47;100.00
6565;BME280;3316;44.118;27.258;2023-04-04T12:17:41;100188.97;;;5.44;100.00
6565;BME280;3316;44.118;27.258;2023-04-04T12:20:09;100195.91;;;5.40;100.00
6565;BME280;3316;44.118;27.258;2023-04-04T12:22:36;100205.50;;;5.49;100.00
6565;BME280;3316;44.118;27.258;2023-04-04T12:25:02;100203.69;;;5.31;100.00
6565;BME280;3316;44.118;27.258;2023-04-04T12:27:30;100201.94;;;5.27;100.00
6565;BME280;3316;44.118;27.258;2023-04-04T12:29:56;100204.53;;;5.20;100.00
6565;BME280;3316;44.118;27.258;2023-04-04T12:32:22;100188.84;;;5.14;100.00
6565;BME280;3316;44.118;27.258;2023-04-04T12:34:48;100183.63;;;5.11;100.00
6565;BME280;3316;44.118;27.258;2023-04-04T12:37:13;100188.88;;;5.18;100.00
6565;BME280;3316;44.118;27.258;2023-04-04T12:39:46;100198.44;;;5.15;100.00
6565;BME280;3316;44.118;27.258;2023-04-04T12:42:24;100195.75;;;5.04;100.00
6565;BME280;3316;44.118;27.258;2023-04-04T12:44:50;100202.66;;;4.98;100.00
6565;BME280;3316;44.118;27.258;2023-04-04T12:47:17;100193.09;;;4.94;100.00
6565;BME280;3316;44.118;27.258;2023-04-04T12:49:46;100196.56;;;4.93;100.00
6565;BME280;3316;44.118;27.258;2023-04-04T12:52:20;100192.22;;;4.90;100.00
6565;BME280;3316;44.118;27.258;2023-04-04T12:54:46;100187.03;;;4.98;100.00
6565;BME280;3316;44.118;27.258;2023-04-04T12:57:20;100197.47;;;4.98;100.00
6565;BME280;3316;44.118;27.258;2023-04-04T12:59:45;100187.91;;;4.98;100.00
6565;BME280;3316;44.118;27.258;2023-04-04T13:02:13;100172.22;;;4.89;100.00
6565;BME280;3316;44.118;27.258;2023-04-04T13:04:44;100177.44;;;4.92;100.00
6565;BME280;3316;44.118;27.258;2023-04-04T13:07:26;100187.88;;;4.89;100.00
6565;BME280;3316;44.118;27.258;2023-04-04T13:09:59;100177.41;;;4.86;100.00
6565;BME280;3316;44.118;27.258;2023-04-04T13:12:59;100183.44;;;4.72;100.00